sensor_id;sensor_type;location;lat;lon;timestamp;P1;durP1;ratioP1;P2;durP2;ratioP2
78960;SDS011;68362;45.970;12.646;2024-01-30T00:00:20;12.60;;;7.00;;
78960;SDS011;68362;45.970;12.646;2024-01-30T00:01:42;13.07;;;7.28;;
78960;SDS011;68362;45.970;12.646;2024-01-30T00:02:45;11.52;;;6.72;;
78960;SDS011;68362;45.970;12.646;2024-01-30T00:03:48;11.35;;;7.05;;
78960;SDS011;68362;45.970;12.646;2024-01-30T00:04:50;12.60;;;7.65;;
78960;SDS011;68362;45.970;12.646;2024-01-30T00:05:52;14.15;;;7.57;;
78960;SDS011;68362;45.970;12.646;2024-01-30T00:06:57;12.68;;;7.63;;
78960;SDS011;68362;45.970;12.646;2024-01-30T00:08:00;12.68;;;7.82;;
78960;SDS011;68362;45.970;12.646;2024-01-30T00:09:02;14.73;;;7.45;;
78960;SDS011;68362;45.970;12.646;2024-01-30T00:10:04;14.60;;;7.82;;
78960;SDS011;68362;45.970;12.646;2024-01-30T00:11:07;13.13;;;7.95;;
78960;SDS011;68362;45.970;12.646;2024-01-30T00:12:09;10.93;;;6.70;;
78960;SDS011;68362;45.970;12.646;2024-01-30T00:13:12;14.63;;;7.97;;
78960;SDS011;68362;45.970;12.646;2024-01-30T00:14:15;10.15;;;7.05;;
78960;SDS011;68362;45.970;12.646;2024-01-30T00:15:17;13.85;;;8.13;;
78960;SDS011;68362;45.970;12.646;2024-01-30T00:16:23;16.85;;;8.70;;
78960;SDS011;68362;45.970;12.646;2024-01-30T00:17:26;12.45;;;7.68;;
78960;SDS011;68362;45.970;12.646;2024-01-30T00:18:28;12.10;;;7.32;;
78960;SDS011;68362;45.970;12.646;2024-01-30T00:19:31;12.88;;;8.77;;
78960;SDS011;68362;45.970;12.646;2024-01-30T00:21:36;12.45;;;7.22;;
78960;SDS011;68362;45.970;12.646;2024-01-30T00:22:38;13.82;;;7.55;;
78960;SDS011;68362;45.970;12.646;2024-01-30T00:23:40;14.93;;;7.85;;
78960;SDS011;68362;45.970;12.646;2024-01-30T00:24:43;11.50;;;7.25;;
78960;SDS011;68362;45.970;12.646;2024-01-30T00:25:45;13.93;;;8.20;;
78960;SDS011;68362;45.970;12.646;2024-01-30T00:26:47;11.20;;;7.07;;
78960;SDS011;68362;45.970;12.646;2024-01-30T00:27:49;13.43;;;8.18;;
78960;SDS011;68362;45.970;12.646;2024-01-30T00:28:51;12.88;;;7.90;;
78960;SDS011;68362;45.970;12.646;2024-01-30T00:29:54;13.40;;;8.20;;
78960;SDS011;68362;45.970;12.646;2024-01-30T00:30:56;11.45;;;7.10;;
78960;SDS011;68362;45.970;12.646;2024-01-30T00:31:58;12.32;;;7.50;;
78960;SDS011;68362;45.970;12.646;2024-01-30T00:33:00;14.60;;;7.97;;
78960;SDS011;68362;45.970;12.646;2024-01-30T00:34:03;13.40;;;7.93;;
78960;SDS011;68362;45.970;12.646;2024-01-30T00:35:05;13.45;;;7.88;;
78960;SDS011;68362;45.970;12.646;2024-01-30T00:36:08;16.52;;;8.02;;
78960;SDS011;68362;45.970;12.646;2024-01-30T00:37:11;15.32;;;7.93;;
78960;SDS011;68362;45.970;12.646;2024-01-30T00:38:13;15.98;;;7.97;;
78960;SDS011;68362;45.970;12.646;2024-01-30T00:39:15;13.20;;;8.00;;
78960;SDS011;68362;45.970;12.646;2024-01-30T00:40:17;15.95;;;10.05;;
78960;SDS011;68362;45.970;12.646;2024-01-30T00:41:20;15.38;;;9.25;;
78960;SDS011;68362;45.970;12.646;2024-01-30T00:42:22;14.05;;;7.60;;
78960;SDS011;68362;45.970;12.646;2024-01-30T00:44:27;10.10;;;6.05;;
78960;SDS011;68362;45.970;12.646;2024-01-30T00:45:29;11.68;;;6.68;;
78960;SDS011;68362;45.970;12.646;2024-01-30T00:46:32;12.32;;;7.65;;
78960;SDS011;68362;45.970;12.646;2024-01-30T00:47:34;9.05;;;6.40;;
78960;SDS011;68362;45.970;12.646;2024-01-30T00:48:36;10.52;;;6.45;;
78960;SDS011;68362;45.970;12.646;2024-01-30T00:49:38;13.38;;;7.07;;
78960;SDS011;68362;45.970;12.646;2024-01-30T00:50:41;9.38;;;6.50;;
78960;SDS011;68362;45.970;12.646;2024-01-30T00:51:43;9.13;;;5.78;;
78960;SDS011;68362;45.970;12.646;2024-01-30T00:52:45;11.70;;;6.10;;
78960;SDS011;68362;45.970;12.646;2024-01-30T00:53:47;9.98;;;6.22;;
78960;SDS011;68362;45.970;12.646;2024-01-30T00:54:50;10.75;;;5.97;;
78960;SDS011;68362;45.970;12.646;2024-01-30T00:55:52;10.63;;;5.68;;
78960;SDS011;68362;45.970;12.646;2024-01-30T00:56:54;8.38;;;5.90;;
78960;SDS011;68362;45.970;12.646;2024-01-30T00:57:56;8.20;;;5.38;;
78960;SDS011;68362;45.970;12.646;2024-01-30T00:58:58;9.38;;;5.65;;
78960;SDS011;68362;45.970;12.646;2024-01-30T01:00:01;9.50;;;5.70;;
78960;SDS011;68362;45.970;12.646;2024-01-30T01:01:03;9.00;;;5.72;;
78960;SDS011;68362;45.970;12.646;2024-01-30T01:02:05;11.27;;;5.80;;
78960;SDS011;68362;45.970;12.646;2024-01-30T01:03:08;9.90;;;6.00;;
78960;SDS011;68362;45.970;12.646;2024-01-30T01:04:10;7.55;;;5.10;;
78960;SDS011;68362;45.970;12.646;2024-01-30T01:05:13;8.60;;;4.20;;
78960;SDS011;68362;45.970;12.646;2024-01-30T01:06:15;10.88;;;5.25;;
78960;SDS011;68362;45.970;12.646;2024-01-30T01:07:17;8.63;;;5.20;;
78960;SDS011;68362;45.970;12.646;2024-01-30T01:08:20;11.02;;;5.32;;
78960;SDS011;68362;45.970;12.646;2024-01-30T01:09:22;8.00;;;5.05;;
78960;SDS011;68362;45.970;12.646;2024-01-30T01:10:24;7.70;;;5.53;;
78960;SDS011;68362;45.970;12.646;2024-01-30T01:11:26;7.57;;;4.25;;
78960;SDS011;68362;45.970;12.646;2024-01-30T01:12:28;8.98;;;4.72;;
78960;SDS011;68362;45.970;12.646;2024-01-30T01:13:30;9.02;;;4.38;;
78960;SDS011;68362;45.970;12.646;2024-01-30T01:14:32;7.75;;;4.50;;
78960;SDS011;68362;45.970;12.646;2024-01-30T01:15:35;7.63;;;4.45;;
78960;SDS011;68362;45.970;12.646;2024-01-30T01:16:37;9.55;;;5.05;;
78960;SDS011;68362;45.970;12.646;2024-01-30T01:17:39;8.07;;;5.22;;
78960;SDS011;68362;45.970;12.646;2024-01-30T01:18:42;8.15;;;4.63;;
78960;SDS011;68362;45.970;12.646;2024-01-30T01:19:44;7.60;;;5.05;;
78960;SDS011;68362;45.970;12.646;2024-01-30T01:20:47;10.25;;;5.20;;
78960;SDS011;68362;45.970;12.646;2024-01-30T01:21:49;7.60;;;4.63;;
78960;SDS011;68362;45.970;12.646;2024-01-30T01:22:51;8.60;;;4.30;;
78960;SDS011;68362;45.970;12.646;2024-01-30T01:23:54;6.93;;;3.60;;
78960;SDS011;68362;45.970;12.646;2024-01-30T01:24:58;8.98;;;4.25;;
78960;SDS011;68362;45.970;12.646;2024-01-30T01:26:00;11.02;;;4.55;;
78960;SDS011;68362;45.970;12.646;2024-01-30T01:27:03;9.13;;;4.97;;
78960;SDS011;68362;45.970;12.646;2024-01-30T01:28:05;9.60;;;4.97;;
78960;SDS011;68362;45.970;12.646;2024-01-30T01:29:07;10.80;;;4.85;;
78960;SDS011;68362;45.970;12.646;2024-01-30T01:30:13;10.13;;;5.03;;
78960;SDS011;68362;45.970;12.646;2024-01-30T01:31:20;8.10;;;5.05;;
78960;SDS011;68362;45.970;12.646;2024-01-30T01:32:27;6.05;;;3.90;;
78960;SDS011;68362;45.970;12.646;2024-01-30T01:33:29;11.55;;;4.20;;
78960;SDS011;68362;45.970;12.646;2024-01-30T01:34:31;8.95;;;4.82;;
78960;SDS011;68362;45.970;12.646;2024-01-30T01:35:33;10.05;;;3.95;;
78960;SDS011;68362;45.970;12.646;2024-01-30T01:36:36;8.48;;;4.90;;
78960;SDS011;68362;45.970;12.646;2024-01-30T01:37:38;8.82;;;4.38;;
78960;SDS011;68362;45.970;12.646;2024-01-30T01:38:40;9.15;;;5.30;;
78960;SDS011;68362;45.970;12.646;2024-01-30T01:39:42;8.95;;;5.10;;
78960;SDS011;68362;45.970;12.646;2024-01-30T01:40:45;9.27;;;5.13;;
78960;SDS011;68362;45.970;12.646;2024-01-30T01:41:47;9.18;;;5.20;;
78960;SDS011;68362;45.970;12.646;2024-01-30T01:42:53;7.00;;;4.57;;
78960;SDS011;68362;45.970;12.646;2024-01-30T01:43:56;7.78;;;4.18;;
78960;SDS011;68362;45.970;12.646;2024-01-30T01:44:59;7.05;;;4.22;;
78960;SDS011;68362;45.970;12.646;2024-01-30T01:46:01;10.27;;;5.05;;
78960;SDS011;68362;45.970;12.646;2024-01-30T01:47:04;9.93;;;5.18;;
78960;SDS011;68362;45.970;12.646;2024-01-30T01:48:06;8.80;;;4.70;;
78960;SDS011;68362;45.970;12.646;2024-01-30T01:49:10;8.82;;;5.53;;
78960;SDS011;68362;45.970;12.646;2024-01-30T01:50:13;9.10;;;4.53;;
78960;SDS011;68362;45.970;12.646;2024-01-30T01:51:17;10.45;;;5.68;;
78960;SDS011;68362;45.970;12.646;2024-01-30T01:52:19;11.63;;;5.07;;
78960;SDS011;68362;45.970;12.646;2024-01-30T01:53:22;10.38;;;5.35;;
78960;SDS011;68362;45.970;12.646;2024-01-30T01:54:24;10.07;;;4.72;;
78960;SDS011;68362;45.970;12.646;2024-01-30T01:55:28;8.23;;;5.18;;
78960;SDS011;68362;45.970;12.646;2024-01-30T01:56:31;9.05;;;5.25;;
78960;SDS011;68362;45.970;12.646;2024-01-30T01:57:35;8.15;;;4.55;;
78960;SDS011;68362;45.970;12.646;2024-01-30T01:58:38;10.20;;;5.28;;
78960;SDS011;68362;45.970;12.646;2024-01-30T01:59:40;6.22;;;3.95;;
78960;SDS011;68362;45.970;12.646;2024-01-30T02:00:42;8.80;;;5.15;;
78960;SDS011;68362;45.970;12.646;2024-01-30T02:01:44;8.00;;;4.88;;
78960;SDS011;68362;45.970;12.646;2024-01-30T02:02:51;8.40;;;4.85;;
78960;SDS011;68362;45.970;12.646;2024-01-30T02:03:55;10.45;;;5.15;;
78960;SDS011;68362;45.970;12.646;2024-01-30T02:04:58;10.18;;;5.47;;
78960;SDS011;68362;45.970;12.646;2024-01-30T02:06:01;8.57;;;5.15;;
78960;SDS011;68362;45.970;12.646;2024-01-30T02:07:04;10.65;;;5.55;;
78960;SDS011;68362;45.970;12.646;2024-01-30T02:08:07;10.23;;;5.53;;
78960;SDS011;68362;45.970;12.646;2024-01-30T02:09:10;11.85;;;5.22;;
78960;SDS011;68362;45.970;12.646;2024-01-30T02:10:13;11.63;;;5.82;;
78960;SDS011;68362;45.970;12.646;2024-01-30T02:11:15;9.55;;;5.15;;
78960;SDS011;68362;45.970;12.646;2024-01-30T02:12:18;10.85;;;5.20;;
78960;SDS011;68362;45.970;12.646;2024-01-30T02:13:20;9.40;;;5.32;;
78960;SDS011;68362;45.970;12.646;2024-01-30T02:14:23;7.90;;;5.18;;
78960;SDS011;68362;45.970;12.646;2024-01-30T02:15:28;8.73;;;5.25;;
78960;SDS011;68362;45.970;12.646;2024-01-30T02:16:31;9.52;;;4.75;;
78960;SDS011;68362;45.970;12.646;2024-01-30T02:18:36;8.65;;;3.78;;
78960;SDS011;68362;45.970;12.646;2024-01-30T02:19:44;8.68;;;4.70;;
78960;SDS011;68362;45.970;12.646;2024-01-30T02:20:46;10.25;;;5.35;;
78960;SDS011;68362;45.970;12.646;2024-01-30T02:21:49;10.15;;;5.72;;
78960;SDS011;68362;45.970;12.646;2024-01-30T02:22:55;10.95;;;4.97;;
78960;SDS011;68362;45.970;12.646;2024-01-30T02:23:57;10.15;;;5.20;;
78960;SDS011;68362;45.970;12.646;2024-01-30T02:25:01;9.32;;;5.93;;
78960;SDS011;68362;45.970;12.646;2024-01-30T02:26:04;10.45;;;5.38;;
78960;SDS011;68362;45.970;12.646;2024-01-30T02:27:06;10.35;;;4.15;;
78960;SDS011;68362;45.970;12.646;2024-01-30T02:28:09;9.90;;;6.15;;
78960;SDS011;68362;45.970;12.646;2024-01-30T02:29:11;11.98;;;5.18;;
78960;SDS011;68362;45.970;12.646;2024-01-30T02:30:13;8.10;;;4.53;;
78960;SDS011;68362;45.970;12.646;2024-01-30T02:31:15;9.93;;;4.85;;
78960;SDS011;68362;45.970;12.646;2024-01-30T02:32:18;8.20;;;4.47;;
78960;SDS011;68362;45.970;12.646;2024-01-30T02:33:20;9.05;;;4.40;;
78960;SDS011;68362;45.970;12.646;2024-01-30T02:34:23;7.78;;;5.35;;
78960;SDS011;68362;45.970;12.646;2024-01-30T02:35:26;9.13;;;4.95;;
78960;SDS011;68362;45.970;12.646;2024-01-30T02:36:28;9.57;;;5.55;;
78960;SDS011;68362;45.970;12.646;2024-01-30T02:37:30;10.18;;;5.70;;
78960;SDS011;68362;45.970;12.646;2024-01-30T02:38:32;8.38;;;5.10;;
78960;SDS011;68362;45.970;12.646;2024-01-30T02:39:35;12.35;;;4.75;;
78960;SDS011;68362;45.970;12.646;2024-01-30T02:40:37;8.98;;;5.47;;
78960;SDS011;68362;45.970;12.646;2024-01-30T02:41:39;8.30;;;4.80;;
78960;SDS011;68362;45.970;12.646;2024-01-30T02:42:41;10.65;;;4.50;;
78960;SDS011;68362;45.970;12.646;2024-01-30T02:43:43;8.95;;;5.03;;
78960;SDS011;68362;45.970;12.646;2024-01-30T02:44:46;7.07;;;4.75;;
78960;SDS011;68362;45.970;12.646;2024-01-30T02:45:48;6.75;;;4.32;;
78960;SDS011;68362;45.970;12.646;2024-01-30T02:46:50;9.63;;;5.35;;
78960;SDS011;68362;45.970;12.646;2024-01-30T02:47:52;6.72;;;4.00;;
78960;SDS011;68362;45.970;12.646;2024-01-30T02:48:55;8.73;;;5.10;;
78960;SDS011;68362;45.970;12.646;2024-01-30T02:49:57;9.90;;;4.95;;
78960;SDS011;68362;45.970;12.646;2024-01-30T02:51:00;7.15;;;4.38;;
78960;SDS011;68362;45.970;12.646;2024-01-30T02:52:02;8.02;;;4.88;;
78960;SDS011;68362;45.970;12.646;2024-01-30T02:53:04;7.97;;;5.13;;
78960;SDS011;68362;45.970;12.646;2024-01-30T02:54:07;11.70;;;5.43;;
78960;SDS011;68362;45.970;12.646;2024-01-30T02:55:09;11.88;;;5.15;;
78960;SDS011;68362;45.970;12.646;2024-01-30T02:57:15;7.40;;;4.70;;
78960;SDS011;68362;45.970;12.646;2024-01-30T02:58:17;8.13;;;4.97;;
78960;SDS011;68362;45.970;12.646;2024-01-30T02:59:19;8.05;;;4.78;;
78960;SDS011;68362;45.970;12.646;2024-01-30T03:00:22;8.50;;;4.80;;
78960;SDS011;68362;45.970;12.646;2024-01-30T03:01:24;7.43;;;5.07;;
78960;SDS011;68362;45.970;12.646;2024-01-30T03:02:26;8.15;;;4.18;;
78960;SDS011;68362;45.970;12.646;2024-01-30T03:03:28;8.15;;;5.35;;
78960;SDS011;68362;45.970;12.646;2024-01-30T03:04:31;8.85;;;5.20;;
78960;SDS011;68362;45.970;12.646;2024-01-30T03:05:33;9.35;;;5.03;;
78960;SDS011;68362;45.970;12.646;2024-01-30T03:06:35;10.30;;;4.90;;
78960;SDS011;68362;45.970;12.646;2024-01-30T03:07:37;7.32;;;5.18;;
78960;SDS011;68362;45.970;12.646;2024-01-30T03:08:40;10.43;;;4.43;;
78960;SDS011;68362;45.970;12.646;2024-01-30T03:09:42;8.82;;;5.22;;
78960;SDS011;68362;45.970;12.646;2024-01-30T03:10:45;11.82;;;5.38;;
78960;SDS011;68362;45.970;12.646;2024-01-30T03:11:48;8.95;;;4.75;;
78960;SDS011;68362;45.970;12.646;2024-01-30T03:12:51;9.75;;;5.20;;
78960;SDS011;68362;45.970;12.646;2024-01-30T03:13:53;10.05;;;5.45;;
78960;SDS011;68362;45.970;12.646;2024-01-30T03:14:55;9.38;;;5.60;;
78960;SDS011;68362;45.970;12.646;2024-01-30T03:15:57;8.23;;;4.57;;
78960;SDS011;68362;45.970;12.646;2024-01-30T03:16:59;8.35;;;5.18;;
78960;SDS011;68362;45.970;12.646;2024-01-30T03:18:02;10.15;;;4.63;;
78960;SDS011;68362;45.970;12.646;2024-01-30T03:19:07;8.07;;;5.28;;
78960;SDS011;68362;45.970;12.646;2024-01-30T03:20:11;8.50;;;4.55;;
78960;SDS011;68362;45.970;12.646;2024-01-30T03:21:13;8.45;;;5.07;;
78960;SDS011;68362;45.970;12.646;2024-01-30T03:22:16;7.70;;;4.28;;
78960;SDS011;68362;45.970;12.646;2024-01-30T03:23:18;10.68;;;5.35;;
78960;SDS011;68362;45.970;12.646;2024-01-30T03:24:20;10.18;;;5.50;;
78960;SDS011;68362;45.970;12.646;2024-01-30T03:25:23;8.73;;;4.15;;
78960;SDS011;68362;45.970;12.646;2024-01-30T03:26:25;8.05;;;4.10;;
78960;SDS011;68362;45.970;12.646;2024-01-30T03:27:28;9.15;;;4.22;;
78960;SDS011;68362;45.970;12.646;2024-01-30T03:28:30;9.18;;;4.88;;
78960;SDS011;68362;45.970;12.646;2024-01-30T03:29:33;11.38;;;5.07;;
78960;SDS011;68362;45.970;12.646;2024-01-30T03:30:35;7.93;;;3.75;;
78960;SDS011;68362;45.970;12.646;2024-01-30T03:31:37;8.25;;;4.30;;
78960;SDS011;68362;45.970;12.646;2024-01-30T03:32:39;7.22;;;3.78;;
78960;SDS011;68362;45.970;12.646;2024-01-30T03:33:42;6.88;;;4.22;;
78960;SDS011;68362;45.970;12.646;2024-01-30T03:34:44;7.07;;;4.13;;
78960;SDS011;68362;45.970;12.646;2024-01-30T03:35:46;7.70;;;4.07;;
78960;SDS011;68362;45.970;12.646;2024-01-30T03:36:48;8.23;;;4.13;;
78960;SDS011;68362;45.970;12.646;2024-01-30T03:37:51;9.32;;;4.40;;
78960;SDS011;68362;45.970;12.646;2024-01-30T03:38:53;6.78;;;4.32;;
78960;SDS011;68362;45.970;12.646;2024-01-30T03:39:55;7.05;;;3.22;;
78960;SDS011;68362;45.970;12.646;2024-01-30T03:40:58;6.50;;;3.63;;
78960;SDS011;68362;45.970;12.646;2024-01-30T03:42:01;6.28;;;3.58;;
78960;SDS011;68362;45.970;12.646;2024-01-30T03:43:03;7.28;;;4.47;;
78960;SDS011;68362;45.970;12.646;2024-01-30T03:44:07;6.80;;;3.42;;
78960;SDS011;68362;45.970;12.646;2024-01-30T03:45:09;6.85;;;3.35;;
78960;SDS011;68362;45.970;12.646;2024-01-30T03:46:12;7.40;;;4.85;;
78960;SDS011;68362;45.970;12.646;2024-01-30T03:48:17;8.07;;;4.15;;
78960;SDS011;68362;45.970;12.646;2024-01-30T03:49:19;7.72;;;3.70;;
78960;SDS011;68362;45.970;12.646;2024-01-30T03:50:22;6.40;;;3.75;;
78960;SDS011;68362;45.970;12.646;2024-01-30T03:51:24;4.50;;;3.70;;
78960;SDS011;68362;45.970;12.646;2024-01-30T03:52:26;6.70;;;3.67;;
78960;SDS011;68362;45.970;12.646;2024-01-30T03:53:28;8.13;;;4.28;;
78960;SDS011;68362;45.970;12.646;2024-01-30T03:54:30;9.25;;;4.63;;
78960;SDS011;68362;45.970;12.646;2024-01-30T03:55:33;7.20;;;4.18;;
78960;SDS011;68362;45.970;12.646;2024-01-30T03:56:35;8.32;;;4.40;;
78960;SDS011;68362;45.970;12.646;2024-01-30T03:57:37;5.60;;;3.92;;
78960;SDS011;68362;45.970;12.646;2024-01-30T03:58:39;5.60;;;3.38;;
78960;SDS011;68362;45.970;12.646;2024-01-30T03:59:44;9.00;;;4.43;;
78960;SDS011;68362;45.970;12.646;2024-01-30T04:00:46;10.25;;;4.63;;
78960;SDS011;68362;45.970;12.646;2024-01-30T04:01:52;7.15;;;3.85;;
78960;SDS011;68362;45.970;12.646;2024-01-30T04:02:55;7.47;;;4.03;;
78960;SDS011;68362;45.970;12.646;2024-01-30T04:03:57;6.38;;;4.50;;
78960;SDS011;68362;45.970;12.646;2024-01-30T04:04:59;7.22;;;4.53;;
78960;SDS011;68362;45.970;12.646;2024-01-30T04:06:01;6.60;;;3.75;;
78960;SDS011;68362;45.970;12.646;2024-01-30T04:07:04;8.20;;;4.15;;
78960;SDS011;68362;45.970;12.646;2024-01-30T04:08:06;7.60;;;4.57;;
78960;SDS011;68362;45.970;12.646;2024-01-30T04:09:08;8.80;;;4.75;;
78960;SDS011;68362;45.970;12.646;2024-01-30T04:10:10;7.57;;;4.00;;
78960;SDS011;68362;45.970;12.646;2024-01-30T04:11:13;10.32;;;4.95;;
78960;SDS011;68362;45.970;12.646;2024-01-30T04:12:15;7.13;;;3.83;;
78960;SDS011;68362;45.970;12.646;2024-01-30T04:13:17;5.65;;;3.55;;
78960;SDS011;68362;45.970;12.646;2024-01-30T04:14:19;8.73;;;4.55;;
78960;SDS011;68362;45.970;12.646;2024-01-30T04:15:22;8.40;;;4.22;;
78960;SDS011;68362;45.970;12.646;2024-01-30T04:16:24;7.93;;;4.18;;
78960;SDS011;68362;45.970;12.646;2024-01-30T04:17:26;7.45;;;4.50;;
78960;SDS011;68362;45.970;12.646;2024-01-30T04:18:30;7.63;;;4.32;;
78960;SDS011;68362;45.970;12.646;2024-01-30T04:19:32;7.50;;;4.22;;
78960;SDS011;68362;45.970;12.646;2024-01-30T04:20:34;7.43;;;4.18;;
78960;SDS011;68362;45.970;12.646;2024-01-30T04:21:36;9.38;;;4.63;;
78960;SDS011;68362;45.970;12.646;2024-01-30T04:22:39;9.23;;;5.60;;
78960;SDS011;68362;45.970;12.646;2024-01-30T04:23:41;7.38;;;4.80;;
78960;SDS011;68362;45.970;12.646;2024-01-30T04:24:43;8.88;;;5.50;;
78960;SDS011;68362;45.970;12.646;2024-01-30T04:25:46;8.27;;;4.05;;
78960;SDS011;68362;45.970;12.646;2024-01-30T04:26:48;8.45;;;4.53;;
78960;SDS011;68362;45.970;12.646;2024-01-30T04:27:50;7.35;;;4.18;;
78960;SDS011;68362;45.970;12.646;2024-01-30T04:28:52;14.25;;;9.02;;
78960;SDS011;68362;45.970;12.646;2024-01-30T04:29:54;20.77;;;14.93;;
78960;SDS011;68362;45.970;12.646;2024-01-30T04:30:57;29.73;;;20.02;;
78960;SDS011;68362;45.970;12.646;2024-01-30T04:31:59;52.92;;;33.55;;
78960;SDS011;68362;45.970;12.646;2024-01-30T04:33:01;14.23;;;8.57;;
78960;SDS011;68362;45.970;12.646;2024-01-30T04:34:03;7.97;;;5.22;;
78960;SDS011;68362;45.970;12.646;2024-01-30T04:35:06;9.23;;;4.95;;
78960;SDS011;68362;45.970;12.646;2024-01-30T04:36:12;9.85;;;5.45;;
78960;SDS011;68362;45.970;12.646;2024-01-30T04:37:14;13.07;;;6.18;;
78960;SDS011;68362;45.970;12.646;2024-01-30T04:38:16;16.63;;;8.07;;
78960;SDS011;68362;45.970;12.646;2024-01-30T04:39:18;23.52;;;12.45;;
78960;SDS011;68362;45.970;12.646;2024-01-30T04:40:21;23.95;;;13.27;;
78960;SDS011;68362;45.970;12.646;2024-01-30T04:41:23;34.97;;;17.33;;
78960;SDS011;68362;45.970;12.646;2024-01-30T04:42:25;24.83;;;12.40;;
78960;SDS011;68362;45.970;12.646;2024-01-30T04:43:27;18.35;;;9.95;;
78960;SDS011;68362;45.970;12.646;2024-01-30T04:44:30;25.20;;;13.75;;
78960;SDS011;68362;45.970;12.646;2024-01-30T04:45:32;24.00;;;15.57;;
78960;SDS011;68362;45.970;12.646;2024-01-30T04:46:34;32.33;;;18.45;;
78960;SDS011;68362;45.970;12.646;2024-01-30T04:47:36;32.72;;;19.90;;
78960;SDS011;68362;45.970;12.646;2024-01-30T04:48:39;26.40;;;15.95;;
78960;SDS011;68362;45.970;12.646;2024-01-30T04:49:41;25.98;;;13.02;;
78960;SDS011;68362;45.970;12.646;2024-01-30T04:50:44;22.52;;;9.73;;
78960;SDS011;68362;45.970;12.646;2024-01-30T04:51:46;26.88;;;14.45;;
78960;SDS011;68362;45.970;12.646;2024-01-30T04:52:48;36.55;;;19.23;;
78960;SDS011;68362;45.970;12.646;2024-01-30T04:53:51;81.00;;;40.03;;
78960;SDS011;68362;45.970;12.646;2024-01-30T04:54:53;62.78;;;30.80;;
78960;SDS011;68362;45.970;12.646;2024-01-30T04:55:55;38.67;;;21.45;;
78960;SDS011;68362;45.970;12.646;2024-01-30T04:56:57;38.95;;;22.95;;
78960;SDS011;68362;45.970;12.646;2024-01-30T04:58:00;30.55;;;16.92;;
78960;SDS011;68362;45.970;12.646;2024-01-30T04:59:02;32.67;;;15.57;;
78960;SDS011;68362;45.970;12.646;2024-01-30T05:00:05;29.33;;;14.40;;
78960;SDS011;68362;45.970;12.646;2024-01-30T05:01:08;17.10;;;8.55;;
78960;SDS011;68362;45.970;12.646;2024-01-30T05:02:10;20.05;;;8.95;;
78960;SDS011;68362;45.970;12.646;2024-01-30T05:03:12;14.45;;;7.78;;
78960;SDS011;68362;45.970;12.646;2024-01-30T05:04:15;15.90;;;7.13;;
78960;SDS011;68362;45.970;12.646;2024-01-30T05:05:18;12.50;;;5.90;;
78960;SDS011;68362;45.970;12.646;2024-01-30T05:06:24;10.30;;;5.72;;
78960;SDS011;68362;45.970;12.646;2024-01-30T05:07:27;10.15;;;5.28;;
78960;SDS011;68362;45.970;12.646;2024-01-30T05:08:29;8.40;;;4.28;;
78960;SDS011;68362;45.970;12.646;2024-01-30T05:09:32;7.60;;;5.03;;
78960;SDS011;68362;45.970;12.646;2024-01-30T05:10:34;9.93;;;4.85;;
78960;SDS011;68362;45.970;12.646;2024-01-30T05:11:37;7.63;;;4.28;;
78960;SDS011;68362;45.970;12.646;2024-01-30T05:12:40;10.25;;;4.97;;
78960;SDS011;68362;45.970;12.646;2024-01-30T05:13:43;9.27;;;4.43;;
78960;SDS011;68362;45.970;12.646;2024-01-30T05:14:45;12.95;;;4.97;;
78960;SDS011;68362;45.970;12.646;2024-01-30T05:15:47;10.02;;;4.65;;
78960;SDS011;68362;45.970;12.646;2024-01-30T05:16:49;7.53;;;4.05;;
78960;SDS011;68362;45.970;12.646;2024-01-30T05:17:51;7.72;;;4.25;;
78960;SDS011;68362;45.970;12.646;2024-01-30T05:18:54;8.40;;;4.57;;
78960;SDS011;68362;45.970;12.646;2024-01-30T05:19:56;7.95;;;4.40;;
78960;SDS011;68362;45.970;12.646;2024-01-30T05:20:58;11.90;;;6.30;;
78960;SDS011;68362;45.970;12.646;2024-01-30T05:22:01;9.75;;;5.60;;
78960;SDS011;68362;45.970;12.646;2024-01-30T05:23:04;19.88;;;11.55;;
78960;SDS011;68362;45.970;12.646;2024-01-30T05:24:06;65.25;;;39.72;;
78960;SDS011;68362;45.970;12.646;2024-01-30T05:25:08;60.83;;;39.00;;
78960;SDS011;68362;45.970;12.646;2024-01-30T05:26:11;76.40;;;46.58;;
78960;SDS011;68362;45.970;12.646;2024-01-30T05:27:13;62.75;;;37.50;;
78960;SDS011;68362;45.970;12.646;2024-01-30T05:28:15;54.33;;;32.45;;
78960;SDS011;68362;45.970;12.646;2024-01-30T05:29:18;86.30;;;47.45;;
78960;SDS011;68362;45.970;12.646;2024-01-30T05:30:20;140.38;;;80.50;;
78960;SDS011;68362;45.970;12.646;2024-01-30T05:31:22;147.23;;;82.88;;
78960;SDS011;68362;45.970;12.646;2024-01-30T05:32:24;143.18;;;80.72;;
78960;SDS011;68362;45.970;12.646;2024-01-30T05:33:26;151.50;;;84.05;;
78960;SDS011;68362;45.970;12.646;2024-01-30T05:34:29;116.68;;;64.68;;
78960;SDS011;68362;45.970;12.646;2024-01-30T05:35:31;122.18;;;62.70;;
78960;SDS011;68362;45.970;12.646;2024-01-30T05:36:33;91.80;;;49.53;;
78960;SDS011;68362;45.970;12.646;2024-01-30T05:37:35;56.60;;;28.67;;
78960;SDS011;68362;45.970;12.646;2024-01-30T05:38:38;101.05;;;55.08;;
78960;SDS011;68362;45.970;12.646;2024-01-30T05:39:40;131.93;;;75.60;;
78960;SDS011;68362;45.970;12.646;2024-01-30T05:40:42;85.97;;;53.10;;
78960;SDS011;68362;45.970;12.646;2024-01-30T05:41:44;50.10;;;30.52;;
78960;SDS011;68362;45.970;12.646;2024-01-30T05:42:47;33.67;;;19.17;;
78960;SDS011;68362;45.970;12.646;2024-01-30T05:43:49;47.80;;;25.83;;
78960;SDS011;68362;45.970;12.646;2024-01-30T05:44:51;41.47;;;24.10;;
78960;SDS011;68362;45.970;12.646;2024-01-30T05:45:53;70.30;;;38.70;;
78960;SDS011;68362;45.970;12.646;2024-01-30T05:46:56;77.70;;;44.05;;
78960;SDS011;68362;45.970;12.646;2024-01-30T05:47:58;75.07;;;41.97;;
78960;SDS011;68362;45.970;12.646;2024-01-30T05:49:00;70.78;;;38.05;;
78960;SDS011;68362;45.970;12.646;2024-01-30T05:50:02;62.85;;;32.72;;
78960;SDS011;68362;45.970;12.646;2024-01-30T05:51:06;56.70;;;31.92;;
78960;SDS011;68362;45.970;12.646;2024-01-30T05:52:10;38.83;;;20.77;;
78960;SDS011;68362;45.970;12.646;2024-01-30T05:53:12;32.47;;;18.58;;
78960;SDS011;68362;45.970;12.646;2024-01-30T05:54:15;30.17;;;17.40;;
78960;SDS011;68362;45.970;12.646;2024-01-30T05:55:19;14.52;;;7.95;;
78960;SDS011;68362;45.970;12.646;2024-01-30T05:56:21;9.00;;;5.30;;
78960;SDS011;68362;45.970;12.646;2024-01-30T05:57:24;10.60;;;5.40;;
78960;SDS011;68362;45.970;12.646;2024-01-30T05:58:27;13.02;;;6.72;;
78960;SDS011;68362;45.970;12.646;2024-01-30T05:59:29;16.67;;;8.95;;
78960;SDS011;68362;45.970;12.646;2024-01-30T06:00:32;17.13;;;8.60;;
78960;SDS011;68362;45.970;12.646;2024-01-30T06:01:34;16.52;;;7.90;;
78960;SDS011;68362;45.970;12.646;2024-01-30T06:02:36;20.05;;;7.18;;
78960;SDS011;68362;45.970;12.646;2024-01-30T06:03:39;8.70;;;5.97;;
78960;SDS011;68362;45.970;12.646;2024-01-30T06:04:42;9.63;;;5.72;;
78960;SDS011;68362;45.970;12.646;2024-01-30T06:05:46;9.75;;;5.90;;
78960;SDS011;68362;45.970;12.646;2024-01-30T06:06:48;10.80;;;5.63;;
78960;SDS011;68362;45.970;12.646;2024-01-30T06:07:51;11.85;;;5.97;;
78960;SDS011;68362;45.970;12.646;2024-01-30T06:08:54;7.18;;;4.28;;
78960;SDS011;68362;45.970;12.646;2024-01-30T06:09:58;6.90;;;4.43;;
78960;SDS011;68362;45.970;12.646;2024-01-30T06:11:02;10.18;;;5.50;;
78960;SDS011;68362;45.970;12.646;2024-01-30T06:12:05;12.88;;;4.97;;
78960;SDS011;68362;45.970;12.646;2024-01-30T06:13:07;9.55;;;5.13;;